createdAt,value
2023-02-17T00:01:26.483Z,97.72
2023-02-17T00:03:54.350Z,97.56
2023-02-17T00:06:25.157Z,97.53
2023-02-17T00:08:53.124Z,97.30
2023-02-17T00:11:21.681Z,97.56
2023-02-17T00:13:48.967Z,97.50
2023-02-17T00:16:21.899Z,97.31
2023-02-17T00:18:54.057Z,97.58
2023-02-17T00:21:24.006Z,97.55
2023-02-17T00:23:52.038Z,97.48
2023-02-17T00:26:20.421Z,97.26
2023-02-17T00:28:49.052Z,97.40
2023-02-17T00:31:19.043Z,97.11
2023-02-17T00:33:46.651Z,97.24
2023-02-17T00:36:18.044Z,97.24
2023-02-17T00:38:45.808Z,97.21
2023-02-17T00:41:13.173Z,97.14
2023-02-17T00:43:40.561Z,97.37
2023-02-17T00:46:08.227Z,97.45
2023-02-17T00:48:35.817Z,97.76
2023-02-17T00:51:03.761Z,97.41
2023-02-17T00:53:31.319Z,97.73
2023-02-17T00:56:01.889Z,97.67
2023-02-17T00:58:29.333Z,97.77
2023-02-17T01:00:58.329Z,97.96
2023-02-17T01:03:27.044Z,97.84
2023-02-17T01:05:55.928Z,97.50
2023-02-17T01:08:24.690Z,97.85
2023-02-17T01:10:53.329Z,98.03
2023-02-17T01:13:20.718Z,97.44
2023-02-17T01:15:52.614Z,97.58
2023-02-17T01:18:23.791Z,97.30
2023-02-17T01:20:52.383Z,97.03
2023-02-17T01:23:19.704Z,97.24
2023-02-17T01:25:47.732Z,97.17
2023-02-17T01:28:20.788Z,96.91
2023-02-17T01:30:48.905Z,96.97
2023-02-17T01:33:16.344Z,96.95
2023-02-17T01:35:43.870Z,96.84
2023-02-17T01:38:12.969Z,96.60
2023-02-17T01:40:47.674Z,96.52
2023-02-17T01:43:18.243Z,96.78
2023-02-17T01:45:52.773Z,96.54
2023-02-17T01:48:25.664Z,96.57
2023-02-17T01:51:03.279Z,96.31
2023-02-17T01:53:37.505Z,96.68
2023-02-17T01:56:06.440Z,96.33
2023-02-17T01:58:34.622Z,96.71
2023-02-17T02:01:05.451Z,96.39
2023-02-17T02:03:35.175Z,96.38
2023-02-17T02:06:07.616Z,96.48
2023-02-17T02:08:44.987Z,96.18
2023-02-17T02:11:12.624Z,96.05
2023-02-17T02:13:40.180Z,96.02
2023-02-17T02:16:22.093Z,96.28
2023-02-17T02:19:04.844Z,96.23
2023-02-17T02:21:48.958Z,95.98
2023-02-17T02:24:40.523Z,96.07
2023-02-17T02:27:26.534Z,95.86
2023-02-17T02:30:02.691Z,95.78
2023-02-17T02:32:46.608Z,95.86
2023-02-17T02:35:21.577Z,95.96
2023-02-17T02:38:04.927Z,95.98
2023-02-17T02:40:37.792Z,95.77
2023-02-17T02:43:06.023Z,95.92
2023-02-17T02:45:35.184Z,95.82
2023-02-17T02:48:02.948Z,96.34
2023-02-17T02:50:30.940Z,95.80
2023-02-17T02:53:11.306Z,96.29
2023-02-17T02:56:06.871Z,96.08
2023-02-17T02:59:01.545Z,95.92
2023-02-17T03:01:52.178Z,96.15
2023-02-17T03:04:26.854Z,96.53
2023-02-17T03:07:02.234Z,96.12
2023-02-17T03:09:30.326Z,96.04
2023-02-17T03:11:58.675Z,96.42
2023-02-17T03:14:27.612Z,96.38
2023-02-17T03:16:55.798Z,95.94
2023-02-17T03:19:26.310Z,96.10
2023-02-17T03:22:06.034Z,96.15
2023-02-17T03:24:35.139Z,96.16
2023-02-17T03:27:02.502Z,96.18
2023-02-17T03:29:30.010Z,96.16
2023-02-17T03:31:57.719Z,96.46
2023-02-17T03:34:25.151Z,96.24
2023-02-17T03:36:52.394Z,96.48
2023-02-17T03:39:19.682Z,96.10
2023-02-17T03:41:48.464Z,96.05
2023-02-17T03:44:15.754Z,95.81
2023-02-17T03:46:43.008Z,96.32
2023-02-17T03:49:12.157Z,96.36
2023-02-17T03:51:40.441Z,95.85
2023-02-17T03:54:07.953Z,96.02
2023-02-17T03:56:35.164Z,95.94
2023-02-17T03:59:02.575Z,96.02
2023-02-17T04:01:30.392Z,95.91
2023-02-17T04:03:57.848Z,95.62
2023-02-17T04:06:25.346Z,95.94
2023-02-17T04:08:52.776Z,95.65
2023-02-17T04:11:20.111Z,95.88
2023-02-17T04:13:47.655Z,95.61
2023-02-17T04:16:14.818Z,95.55
2023-02-17T04:18:42.169Z,95.55
2023-02-17T04:21:09.557Z,95.74
2023-02-17T04:23:37.446Z,95.50
2023-02-17T04:26:07.345Z,95.38
2023-02-17T04:28:37.868Z,95.67
2023-02-17T04:31:05.637Z,95.75
2023-02-17T04:33:33.128Z,95.74
2023-02-17T04:36:00.437Z,95.65
2023-02-17T04:38:29.290Z,95.62
2023-02-17T04:40:57.634Z,95.39
2023-02-17T04:43:26.548Z,95.57
2023-02-17T04:45:54.857Z,95.66
2023-02-17T04:48:22.945Z,95.56
2023-02-17T04:50:50.510Z,95.76
2023-02-17T04:53:18.531Z,95.83
2023-02-17T04:55:49.756Z,95.85
2023-02-17T04:58:17.430Z,95.87
2023-02-17T05:00:46.463Z,95.76
2023-02-17T05:03:13.903Z,96.04
2023-02-17T05:05:41.395Z,96.16
2023-02-17T05:08:08.849Z,96.29
2023-02-17T05:10:36.314Z,96.36
2023-02-17T05:13:03.669Z,96.88
2023-02-17T05:15:33.089Z,97.17
2023-02-17T05:18:01.778Z,97.43
2023-02-17T05:20:29.441Z,97.95
2023-02-17T05:22:56.789Z,97.81
2023-02-17T05:25:24.190Z,98.62
2023-02-17T05:27:51.381Z,98.54
2023-02-17T05:30:19.005Z,99.09
2023-02-17T05:32:46.679Z,99.22
2023-02-17T05:35:13.974Z,99.53
2023-02-17T05:37:41.387Z,100.00
2023-02-17T05:40:09.368Z,99.85
2023-02-17T05:42:36.851Z,100.00
2023-02-17T05:45:05.095Z,100.00
2023-02-17T05:47:32.584Z,100.00
2023-02-17T05:49:59.716Z,100.00
2023-02-17T05:52:27.189Z,100.00
2023-02-17T05:54:54.549Z,100.00
2023-02-17T05:57:21.797Z,100.00
2023-02-17T05:59:49.104Z,100.00
2023-02-17T06:02:16.524Z,100.00
2023-02-17T06:04:43.993Z,100.00
2023-02-17T06:07:11.532Z,100.00
2023-02-17T06:09:38.944Z,100.00
2023-02-17T06:12:06.553Z,100.00
2023-02-17T06:14:33.990Z,100.00
2023-02-17T06:17:04.202Z,100.00
2023-02-17T06:19:31.458Z,100.00
2023-02-17T06:21:58.790Z,100.00
2023-02-17T06:24:26.249Z,99.99
2023-02-17T06:26:53.458Z,100.00
2023-02-17T06:29:20.660Z,100.00
2023-02-17T06:31:48.047Z,99.71
2023-02-17T06:34:15.566Z,99.85
2023-02-17T06:36:43.094Z,100.00
2023-02-17T06:39:10.702Z,100.00
2023-02-17T06:41:37.977Z,100.00
2023-02-17T06:44:05.381Z,99.89
2023-02-17T06:46:32.723Z,100.00
2023-02-17T06:49:01.680Z,100.00
2023-02-17T06:51:29.422Z,100.00
2023-02-17T06:53:57.084Z,100.00
2023-02-17T06:56:24.422Z,100.00
2023-02-17T06:58:52.292Z,100.00
2023-02-17T07:01:23.399Z,100.00
2023-02-17T07:03:50.985Z,100.00
2023-02-17T07:06:18.657Z,100.00
2023-02-17T07:08:46.497Z,100.00
2023-02-17T07:11:15.179Z,100.00
2023-02-17T07:13:43.024Z,100.00
2023-02-17T07:16:12.359Z,100.00
2023-02-17T07:18:40.254Z,100.00
2023-02-17T07:21:09.320Z,100.00
2023-02-17T07:23:37.420Z,100.00
2023-02-17T07:26:10.158Z,100.00
2023-02-17T07:28:39.579Z,100.00
2023-02-17T07:31:09.681Z,100.00
2023-02-17T07:33:37.751Z,100.00
2023-02-17T07:36:13.177Z,100.00
2023-02-17T07:38:41.071Z,100.00
2023-02-17T07:41:16.937Z,100.00
2023-02-17T07:43:45.259Z,100.00
2023-02-17T07:46:13.370Z,100.00
2023-02-17T07:48:41.496Z,100.00
2023-02-17T07:51:11.697Z,100.00
2023-02-17T07:53:39.170Z,100.00
2023-02-17T07:56:09.966Z,100.00
2023-02-17T07:58:39.591Z,100.00
2023-02-17T08:01:12.697Z,100.00
2023-02-17T08:03:40.598Z,100.00
2023-02-17T08:06:19.173Z,100.00
2023-02-17T08:09:06.297Z,100.00
2023-02-17T08:11:52.551Z,100.00
2023-02-17T08:14:22.845Z,100.00
2023-02-17T08:16:50.689Z,100.00
2023-02-17T08:19:18.340Z,100.00
2023-02-17T08:21:46.275Z,100.00
2023-02-17T08:24:13.910Z,100.00
2023-02-17T08:26:41.156Z,100.00
2023-02-17T08:29:08.860Z,100.00
2023-02-17T08:31:37.768Z,100.00
2023-02-17T08:34:08.320Z,100.00
2023-02-17T08:36:37.772Z,100.00
2023-02-17T08:39:07.040Z,100.00
2023-02-17T08:41:37.460Z,100.00
2023-02-17T08:44:11.838Z,100.00
2023-02-17T08:46:39.397Z,100.00
2023-02-17T08:49:07.605Z,100.00
2023-02-17T08:51:35.427Z,100.00
2023-02-17T08:54:06.664Z,100.00
2023-02-17T08:56:35.126Z,100.00
2023-02-17T08:59:02.864Z,100.00
2023-02-17T09:01:31.001Z,100.00
2023-02-17T09:04:00.167Z,100.00
2023-02-17T09:06:39.652Z,100.00
2023-02-17T09:09:09.461Z,100.00
2023-02-17T09:11:36.963Z,100.00
2023-02-17T09:14:05.049Z,100.00
2023-02-17T09:16:32.443Z,100.00
2023-02-17T09:18:59.763Z,100.00
2023-02-17T09:21:27.114Z,100.00
2023-02-17T09:23:54.632Z,100.00
2023-02-17T09:26:22.466Z,100.00
2023-02-17T09:28:50.293Z,100.00
2023-02-17T09:31:20.547Z,100.00
2023-02-17T09:33:49.347Z,100.00
2023-02-17T09:36:20.507Z,100.00
2023-02-17T09:38:48.462Z,100.00
2023-02-17T09:41:43.532Z,100.00
2023-02-17T09:44:41.473Z,100.00
2023-02-17T09:47:15.671Z,100.00
2023-02-17T09:49:57.670Z,100.00
2023-02-17T09:52:36.311Z,100.00
2023-02-17T09:55:13.950Z,100.00
2023-02-17T09:57:51.880Z,100.00
2023-02-17T10:00:29.721Z,100.00
2023-02-17T10:03:25.810Z,100.00
2023-02-17T10:06:30.816Z,100.00
2023-02-17T10:09:23.167Z,100.00
2023-02-17T10:12:21.073Z,100.00
2023-02-17T10:15:25.607Z,100.00
2023-02-17T10:18:05.007Z,100.00
2023-02-17T10:20:36.870Z,100.00
2023-02-17T10:23:30.421Z,100.00
2023-02-17T10:26:14.722Z,100.00
2023-02-17T10:28:52.176Z,100.00
2023-02-17T10:32:22.572Z,100.00
2023-02-17T10:35:11.520Z,100.00
2023-02-17T10:37:48.663Z,100.00
2023-02-17T10:40:25.680Z,100.00
2023-02-17T10:43:01.908Z,100.00
2023-02-17T10:45:38.095Z,100.00
2023-02-17T10:48:16.446Z,100.00
2023-02-17T10:50:46.532Z,100.00
2023-02-17T10:53:31.836Z,100.00
2023-02-17T10:56:02.666Z,100.00
2023-02-17T10:58:35.835Z,100.00
2023-02-17T11:01:05.667Z,100.00
2023-02-17T11:03:34.487Z,100.00
2023-02-17T11:06:04.869Z,100.00
2023-02-17T11:08:41.329Z,100.00
2023-02-17T11:11:27.100Z,100.00
2023-02-17T11:14:09.948Z,100.00
2023-02-17T11:16:47.462Z,100.00
2023-02-17T11:19:40.958Z,100.00
2023-02-17T11:22:41.051Z,100.00
2023-02-17T11:25:25.938Z,100.00
2023-02-17T11:27:59.635Z,100.00
2023-02-17T11:30:29.152Z,100.00
2023-02-17T11:32:56.958Z,100.00
2023-02-17T11:35:29.861Z,100.00
2023-02-17T11:38:25.977Z,100.00
2023-02-17T11:40:59.530Z,100.00
2023-02-17T11:43:29.142Z,100.00
2023-02-17T11:46:19.947Z,100.00
2023-02-17T11:49:09.075Z,100.00
2023-02-17T11:52:14.806Z,100.00
2023-02-17T11:55:09.356Z,100.00
2023-02-17T11:57:45.700Z,100.00
2023-02-17T12:00:20.259Z,100.00
2023-02-17T12:03:36.619Z,100.00
2023-02-17T12:06:43.197Z,100.00
2023-02-17T12:09:55.706Z,100.00
2023-02-17T12:12:40.995Z,100.00
2023-02-17T12:15:50.112Z,100.00
2023-02-17T12:18:34.728Z,100.00
2023-02-17T12:21:19.876Z,100.00
2023-02-17T12:24:31.680Z,100.00
2023-02-17T12:27:09.301Z,100.00
2023-02-17T12:30:07.906Z,100.00
2023-02-17T12:33:08.418Z,100.00
2023-02-17T12:35:53.374Z,100.00
2023-02-17T12:38:46.982Z,100.00
2023-02-17T12:41:23.372Z,100.00
2023-02-17T12:43:58.890Z,100.00
2023-02-17T12:46:33.029Z,100.00
2023-02-17T12:49:07.668Z,100.00
2023-02-17T12:52:11.310Z,100.00
2023-02-17T12:54:45.750Z,100.00
2023-02-17T12:57:13.563Z,100.00
2023-02-17T12:59:47.388Z,100.00
2023-02-17T13:02:21.670Z,100.00
2023-02-17T13:04:57.896Z,100.00
2023-02-17T13:08:07.742Z,100.00
2023-02-17T13:10:37.728Z,100.00
2023-02-17T13:13:07.136Z,100.00
2023-02-17T13:15:38.646Z,100.00
2023-02-17T13:18:30.223Z,100.00
2023-02-17T13:21:20.831Z,100.00
2023-02-17T13:24:09.242Z,100.00
2023-02-17T13:26:46.457Z,100.00
2023-02-17T13:29:25.599Z,100.00
2023-02-17T13:31:59.149Z,100.00
2023-02-17T13:34:36.684Z,100.00
2023-02-17T13:37:17.979Z,100.00
2023-02-17T13:39:46.299Z,100.00
2023-02-17T13:42:32.035Z,100.00
2023-02-17T13:44:59.903Z,100.00
2023-02-17T13:47:37.615Z,100.00
2023-02-17T13:50:06.123Z,100.00
2023-02-17T13:52:34.196Z,100.00
2023-02-17T13:55:05.188Z,100.00
2023-02-17T13:57:34.694Z,100.00
2023-02-17T14:00:20.809Z,100.00
2023-02-17T14:02:55.167Z,100.00
2023-02-17T14:05:30.996Z,100.00
2023-02-17T14:08:05.697Z,100.00
2023-02-17T14:10:33.631Z,100.00
2023-02-17T14:13:01.183Z,100.00
2023-02-17T14:15:29.802Z,100.00
2023-02-17T14:17:57.375Z,100.00
2023-02-17T14:20:43.026Z,100.00
2023-02-17T14:23:13.259Z,100.00
2023-02-17T14:25:41.823Z,100.00
2023-02-17T14:28:27.498Z,100.00
2023-02-17T14:30:54.999Z,100.00
2023-02-17T14:33:25.955Z,100.00
2023-02-17T14:36:06.543Z,100.00
2023-02-17T14:38:37.953Z,100.00
2023-02-17T14:41:06.847Z,100.00
2023-02-17T14:43:34.323Z,100.00
2023-02-17T14:46:01.840Z,100.00
2023-02-17T14:48:29.175Z,100.00
2023-02-17T14:50:59.544Z,100.00
2023-02-17T14:53:40.741Z,100.00
2023-02-17T14:56:15.543Z,100.00
2023-02-17T14:58:43.424Z,100.00
2023-02-17T15:01:14.127Z,100.00
2023-02-17T15:03:41.569Z,100.00
2023-02-17T15:06:18.422Z,100.00
2023-02-17T15:08:48.085Z,100.00
2023-02-17T15:11:26.645Z,100.00
2023-02-17T15:13:54.269Z,100.00
2023-02-17T15:16:21.597Z,100.00
2023-02-17T15:18:51.220Z,100.00
2023-02-17T15:21:27.817Z,100.00
2023-02-17T15:23:57.107Z,100.00
2023-02-17T15:26:25.343Z,100.00
2023-02-17T15:28:53.782Z,100.00
2023-02-17T15:31:21.924Z,100.00
2023-02-17T15:33:58.271Z,100.00
2023-02-17T15:36:27.512Z,100.00
2023-02-17T15:38:56.832Z,100.00
2023-02-17T15:41:26.642Z,100.00
2023-02-17T15:43:58.076Z,100.00
2023-02-17T15:46:33.148Z,100.00
2023-02-17T15:49:01.512Z,100.00
2023-02-17T15:51:29.432Z,100.00
2023-02-17T15:53:57.053Z,100.00
2023-02-17T15:56:30.840Z,100.00
2023-02-17T15:59:05.099Z,100.00
2023-02-17T16:01:34.761Z,100.00
2023-02-17T16:04:03.779Z,100.00
2023-02-17T16:06:31.680Z,100.00
2023-02-17T16:09:00.173Z,100.00
2023-02-17T16:11:28.484Z,100.00
2023-02-17T16:13:57.693Z,100.00
2023-02-17T16:16:30.087Z,100.00
2023-02-17T16:18:58.350Z,100.00
2023-02-17T16:21:26.889Z,100.00
2023-02-17T16:24:00.922Z,100.00
2023-02-17T16:26:34.183Z,100.00
2023-02-17T16:29:04.932Z,100.00
2023-02-17T16:31:33.124Z,100.00
2023-02-17T16:34:01.103Z,100.00
2023-02-17T16:36:34.424Z,100.00
2023-02-17T16:39:11.339Z,100.00
2023-02-17T16:41:39.886Z,100.00
2023-02-17T16:44:08.812Z,100.00
2023-02-17T16:46:37.815Z,100.00
2023-02-17T16:49:24.190Z,100.00
2023-02-17T16:51:52.985Z,100.00
2023-02-17T16:54:20.944Z,100.00
2023-02-17T16:56:51.503Z,100.00
2023-02-17T16:59:22.785Z,100.00
2023-02-17T17:01:53.623Z,100.00
2023-02-17T17:04:22.996Z,100.00
2023-02-17T17:06:53.020Z,100.00
2023-02-17T17:09:26.192Z,100.00
2023-02-17T17:11:54.310Z,100.00
2023-02-17T17:14:22.066Z,100.00
2023-02-17T17:16:58.272Z,100.00
2023-02-17T17:19:26.685Z,100.00
2023-02-17T17:21:54.730Z,100.00
2023-02-17T17:24:23.053Z,100.00
2023-02-17T17:26:52.280Z,100.00
2023-02-17T17:29:21.352Z,100.00
2023-02-17T17:31:49.468Z,100.00
2023-02-17T17:34:17.612Z,100.00
2023-02-17T17:36:48.092Z,100.00
2023-02-17T17:39:17.359Z,100.00
2023-02-17T17:41:46.363Z,100.00
2023-02-17T17:44:15.102Z,100.00
2023-02-17T17:46:43.853Z,100.00
2023-02-17T17:49:15.705Z,100.00
2023-02-17T17:51:44.212Z,100.00
2023-02-17T17:54:12.672Z,100.00
2023-02-17T17:56:46.061Z,100.00
2023-02-17T17:59:15.427Z,100.00
2023-02-17T18:01:45.555Z,100.00
2023-02-17T18:04:14.570Z,100.00
2023-02-17T18:06:46.838Z,100.00
2023-02-17T18:09:32.111Z,100.00
2023-02-17T18:12:08.146Z,100.00
2023-02-17T18:14:38.807Z,100.00
2023-02-17T18:17:09.803Z,100.00
2023-02-17T18:19:38.833Z,100.00
2023-02-17T18:22:07.945Z,100.00
2023-02-17T18:24:35.905Z,100.00
2023-02-17T18:27:03.957Z,100.00
2023-02-17T18:29:32.068Z,100.00
2023-02-17T18:32:00.655Z,100.00
2023-02-17T18:34:28.687Z,100.00
2023-02-17T18:36:56.630Z,100.00
2023-02-17T18:39:24.929Z,100.00
2023-02-17T18:41:52.706Z,100.00
2023-02-17T18:44:20.629Z,100.00
2023-02-17T18:46:49.058Z,100.00
2023-02-17T18:49:17.400Z,100.00
2023-02-17T18:51:45.488Z,100.00
2023-02-17T18:54:13.793Z,100.00
2023-02-17T18:56:41.908Z,100.00
2023-02-17T18:59:09.965Z,100.00
2023-02-17T19:01:40.433Z,100.00
2023-02-17T19:04:10.277Z,100.00
2023-02-17T19:06:38.275Z,100.00
2023-02-17T19:09:06.778Z,100.00
2023-02-17T19:11:35.730Z,100.00
2023-02-17T19:14:04.204Z,100.00
2023-02-17T19:16:32.943Z,100.00
2023-02-17T19:19:02.029Z,100.00
2023-02-17T19:21:30.124Z,100.00
2023-02-17T19:23:58.003Z,100.00
2023-02-17T19:26:26.142Z,100.00
2023-02-17T19:28:54.476Z,100.00
2023-02-17T19:31:22.705Z,100.00
2023-02-17T19:33:51.062Z,100.00
2023-02-17T19:36:21.815Z,100.00
2023-02-17T19:38:51.484Z,100.00
2023-02-17T19:41:20.526Z,100.00
2023-02-17T19:43:48.956Z,100.00
2023-02-17T19:46:20.235Z,100.00
2023-02-17T19:48:48.417Z,100.00
2023-02-17T19:51:17.158Z,100.00
2023-02-17T19:53:45.266Z,100.00
2023-02-17T19:56:16.379Z,100.00
2023-02-17T19:58:46.160Z,100.00
2023-02-17T20:01:23.405Z,100.00
2023-02-17T20:03:52.770Z,100.00
2023-02-17T20:06:27.087Z,100.00
2023-02-17T20:09:06.757Z,100.00
2023-02-17T20:11:35.006Z,100.00
2023-02-17T20:14:04.109Z,100.00
2023-02-17T20:16:32.777Z,100.00
2023-02-17T20:19:03.058Z,100.00
2023-02-17T20:21:32.630Z,100.00
2023-02-17T20:24:00.803Z,100.00
2023-02-17T20:26:32.240Z,99.73
2023-02-17T20:29:00.951Z,97.10
2023-02-17T20:31:29.408Z,91.92
2023-02-17T20:33:57.461Z,88.43
2023-02-17T20:36:25.681Z,86.82
2023-02-17T20:38:53.808Z,83.14
2023-02-17T20:41:24.048Z,81.23
2023-02-17T20:43:52.929Z,81.29
2023-02-17T20:46:27.455Z,80.66
2023-02-17T20:48:55.877Z,79.45
2023-02-17T20:51:24.085Z,79.70
2023-02-17T20:53:52.314Z,79.19
2023-02-17T20:56:22.991Z,79.59
2023-02-17T20:58:51.081Z,79.58
2023-02-17T21:01:18.446Z,80.36
2023-02-17T21:03:45.888Z,81.13
2023-02-17T21:06:23.194Z,82.79
2023-02-17T21:08:53.011Z,84.08
2023-02-17T21:11:20.615Z,84.43
2023-02-17T21:13:48.161Z,84.38
2023-02-17T21:16:17.840Z,84.04
2023-02-17T21:18:46.958Z,82.55
2023-02-17T21:21:15.524Z,78.84
2023-02-17T21:23:43.148Z,77.37
2023-02-17T21:26:13.286Z,76.75
2023-02-17T21:28:40.901Z,76.68
2023-02-17T21:31:08.360Z,76.55
2023-02-17T21:33:42.075Z,77.16
2023-02-17T21:36:11.580Z,76.70
2023-02-17T21:38:39.383Z,77.19
2023-02-17T21:41:11.312Z,77.57
2023-02-17T21:43:57.874Z,79.31
2023-02-17T21:46:26.548Z,79.34
2023-02-17T21:48:53.859Z,80.42
2023-02-17T21:51:21.295Z,80.02
2023-02-17T21:53:48.800Z,79.00
2023-02-17T21:56:16.769Z,77.89
2023-02-17T21:58:52.248Z,77.17
2023-02-17T22:01:21.339Z,77.35
2023-02-17T22:03:48.667Z,77.17
2023-02-17T22:06:22.703Z,77.53
2023-02-17T22:08:50.053Z,76.54
2023-02-17T22:11:23.322Z,77.28
2023-02-17T22:13:54.751Z,77.88
2023-02-17T22:16:22.654Z,77.95
2023-02-17T22:18:50.487Z,78.14
2023-02-17T22:21:18.519Z,78.19
2023-02-17T22:23:46.056Z,77.79
2023-02-17T22:26:17.226Z,77.50
2023-02-17T22:28:44.504Z,78.64
2023-02-17T22:31:21.183Z,78.23
2023-02-17T22:33:49.374Z,79.52
2023-02-17T22:36:23.163Z,80.75
2023-02-17T22:38:52.897Z,81.88
2023-02-17T22:41:23.098Z,83.40
2023-02-17T22:43:51.417Z,83.40
2023-02-17T22:46:22.902Z,82.38
2023-02-17T22:48:52.726Z,81.57
2023-02-17T22:51:23.152Z,79.56
2023-02-17T22:53:51.062Z,78.83
2023-02-17T22:56:19.290Z,78.50
2023-02-17T22:58:47.029Z,77.61
2023-02-17T23:01:19.603Z,76.28
2023-02-17T23:03:52.923Z,76.78
2023-02-17T23:06:26.853Z,76.56
2023-02-17T23:08:54.744Z,76.56
2023-02-17T23:11:44.314Z,76.84
2023-02-17T23:14:13.622Z,77.23
2023-02-17T23:16:41.321Z,77.86
2023-02-17T23:19:11.198Z,77.95
2023-02-17T23:21:42.379Z,78.21
2023-02-17T23:24:09.842Z,78.01
2023-02-17T23:26:37.220Z,78.00
2023-02-17T23:29:04.725Z,77.81
2023-02-17T23:31:32.203Z,77.24
2023-02-17T23:33:59.831Z,77.53
2023-02-17T23:36:27.374Z,77.84
2023-02-17T23:38:56.060Z,78.01
2023-02-17T23:41:23.502Z,77.65
2023-02-17T23:43:51.044Z,77.44
2023-02-17T23:46:18.772Z,77.63
2023-02-17T23:48:46.277Z,77.72
2023-02-17T23:51:16.848Z,77.24
2023-02-17T23:53:44.856Z,77.25
2023-02-17T23:56:31.820Z,77.44
2023-02-17T23:58:59.917Z,76.96
